Aeroporto :
LOGIN :

Iscrizione | Disclaimer

   EN    FR    IT 

 










Sommario :    VFR   VFR Marginale   IFR   IFR Intensivo   IFR Molto Intensivo
Visibilità : 
Base nubi : 
>= 8 km
>= 3000ft
5 / 8 km
1000 / 3000 ft
1500m / 5 km
500 / 1000 ft
800 / 1500m
200 / 500 ft
< 800m
< 200 ft
Simboli :   Temporali  Nebbia  Neve Forte  Precipitazioni Forti  Vento > 20 kt
SIGMETs :   Varie  Temporali  Ghiacco  Turbolenza  Onda orograficha  Ceneri Vulcaniche






- Altitudine del aeroporto : 359 ft
- Codice IATA : DEB


LHDC - Debrecen

ULTIMO METAR :
  • 300045Z AUTO 26005KT 5000 BR FEW006 08/08 Q1018

METARs OBSOLETI :
  • 300035Z AUTO 26005KT 220V280 5000 BR SCT007 08/08 Q1018
  • 300015Z AUTO 25005KT 6000 SCT007 08/08 Q1018
  • 292345Z AUTO 24005KT 220V280 8000 NCD 09/08 Q1018
  • 292315Z AUTO 25006KT 220V290 9000 NCD 09/08 Q1018
  • 292245Z AUTO 24007KT CAVOK 10/09 Q1018
  • 292215Z AUTO 22008KT CAVOK 10/09 Q1018
  • 292145Z AUTO 21008KT CAVOK 10/10 Q1018

Previsioni scadute.



MetMap, La meteo Aeronautica in un colpo d'occhio ! - Copyright ORBIFLY Dicembre 2007 - Disclaimer

ORBIFLY MET'MAP TEAM :

Programmazione e sviluppo : Alexandra Zaïnal
Concezione : Baudouin d'Aumeries
Aiuto per la programmazione : Marc-Olivier Méhu
Supporto tecnico e logistico : Manuel Goepfert
Aiuto per la traduzione : Arnaldo La Scala

Contatto : metmap@orbifly.com




FONTI E CREDITI :

   NOAA